Time;durP1;ratioP1;P1;durP2;ratioP2;P2;SDS_P1;SDS_P2;PMS_P1;PMS_P2;Temp;Humidity;BMP_temperature;BMP_pressure;BME280_temperature;BME280_humidity;BME280_pressure;Samples;Min_cycle;Max_cycle;Signal;HPM_P1;HPM_P2
2021/12/01 00:00:54;;;;;;;0.83;0.63;;;7.60;99.90;;;;;;5032246;28;20250;-63
2021/12/01 00:03:21;;;;;;;0.83;0.70;;;7.60;99.90;;;;;;5032986;28;20214;-63
2021/12/01 00:05:50;;;;;;;1.37;0.67;;;7.70;99.90;;;;;;5032225;28;20222;-63
2021/12/01 00:08:17;;;;;;;1.10;0.90;;;7.70;99.90;;;;;;5032580;28;20206;-63
2021/12/01 00:10:45;;;;;;;1.00;0.87;;;7.60;99.90;;;;;;5032186;28;20202;-63
2021/12/01 00:13:14;;;;;;;0.70;0.70;;;7.60;99.90;;;;;;5032347;28;20226;-63
2021/12/01 00:15:41;;;;;;;1.33;0.83;;;7.70;99.90;;;;;;5032660;28;20264;-63
2021/12/01 00:18:08;;;;;;;1.67;0.87;;;7.70;99.90;;;;;;5032216;28;20245;-63
2021/12/01 00:20:36;;;;;;;0.83;0.80;;;7.70;99.90;;;;;;5032035;28;20210;-63
2021/12/01 00:23:04;;;;;;;0.83;0.60;;;7.70;99.90;;;;;;5031942;28;20209;-63
2021/12/01 00:25:35;;;;;;;1.40;0.80;;;7.70;99.90;;;;;;5032125;28;20284;-63
2021/12/01 00:28:02;;;;;;;1.00;0.90;;;7.60;99.90;;;;;;5032074;28;20305;-63
2021/12/01 00:30:29;;;;;;;1.07;0.67;;;7.60;99.90;;;;;;5031989;28;20221;-62
2021/12/01 00:32:56;;;;;;;3.07;0.93;;;7.60;99.90;;;;;;5031854;28;20226;-63
2021/12/01 00:35:24;;;;;;;2.97;0.90;;;7.50;99.90;;;;;;5032072;28;20226;-64
2021/12/01 00:37:51;;;;;;;0.97;0.70;;;7.40;99.90;;;;;;5031828;28;20217;-63
2021/12/01 00:40:20;;;;;;;1.07;0.87;;;7.40;99.90;;;;;;5031670;28;20206;-63
2021/12/01 00:42:47;;;;;;;1.33;0.90;;;7.50;99.90;;;;;;5031888;28;20198;-62
2021/12/01 00:45:17;;;;;;;1.53;0.80;;;7.50;99.90;;;;;;5034824;28;20226;-62
2021/12/01 00:47:45;;;;;;;1.37;1.10;;;7.60;99.90;;;;;;5035722;28;20206;-62
2021/12/01 00:50:15;;;;;;;1.33;0.90;;;7.60;99.90;;;;;;5035194;28;20303;-62
2021/12/01 00:52:41;;;;;;;0.80;0.80;;;7.60;99.90;;;;;;5035319;28;20226;-62
2021/12/01 00:55:09;;;;;;;0.93;0.70;;;7.60;99.90;;;;;;5035507;28;20733;-62
2021/12/01 00:57:37;;;;;;;0.80;0.60;;;7.70;99.90;;;;;;5035167;28;20210;-63
2021/12/01 01:00:07;;;;;;;1.10;0.70;;;7.50;99.90;;;;;;5034979;28;20233;-62
2021/12/01 01:02:34;;;;;;;1.93;0.63;;;7.50;99.90;;;;;;5035488;28;20206;-63
2021/12/01 01:05:01;;;;;;;0.90;0.70;;;7.50;99.90;;;;;;5035323;28;20233;-62
2021/12/01 01:07:28;;;;;;;1.13;0.60;;;7.40;99.90;;;;;;5035241;28;20261;-62
2021/12/01 01:09:55;;;;;;;0.83;0.60;;;7.40;99.90;;;;;;5035239;28;20202;-62
2021/12/01 01:18:05;;;;;;;0.70;0.70;;;7.50;99.90;;;;;;5035040;28;20344;-62
2021/12/01 01:20:32;;;;;;;0.60;0.60;;;7.60;99.90;;;;;;5034661;28;20662;-62
2021/12/01 01:22:59;;;;;;;1.27;0.60;;;7.60;99.90;;;;;;5034809;28;20202;-62
2021/12/01 01:25:26;;;;;;;0.63;0.57;;;7.60;99.90;;;;;;5035201;28;20764;-62
2021/12/01 01:27:53;;;;;;;0.80;0.80;;;7.60;99.90;;;;;;5034822;28;20210;-62
2021/12/01 01:30:21;;;;;;;0.97;0.70;;;7.60;99.90;;;;;;5034660;28;20214;-62
2021/12/01 01:32:48;;;;;;;1.00;0.90;;;7.70;99.90;;;;;;5034986;28;20230;-63
2021/12/01 01:35:14;;;;;;;0.50;0.50;;;7.70;99.90;;;;;;5034506;28;20718;-62
2021/12/01 01:37:41;;;;;;;0.60;0.60;;;7.70;99.90;;;;;;5034809;28;20587;-62
2021/12/01 01:40:10;;;;;;;1.03;0.67;;;7.70;99.90;;;;;;5034487;28;20226;-62
2021/12/01 01:42:37;;;;;;;0.53;0.40;;;7.70;99.90;;;;;;5034441;28;20233;-63
2021/12/01 01:45:05;;;;;;;0.70;0.70;;;7.60;99.90;;;;;;5034749;28;20230;-62
2021/12/01 01:47:33;;;;;;;0.90;0.73;;;7.50;99.90;;;;;;5034555;28;20206;-63
2021/12/01 01:50:03;;;;;;;0.73;0.60;;;7.60;99.90;;;;;;5034340;28;20213;-62
2021/12/01 01:52:30;;;;;;;1.40;0.80;;;7.60;99.90;;;;;;5034288;28;20214;-63
2021/12/01 01:54:57;;;;;;;1.23;0.70;;;7.50;99.90;;;;;;5034036;28;20710;-63
2021/12/01 01:57:24;;;;;;;1.10;0.60;;;7.60;99.90;;;;;;5034094;28;20210;-63
2021/12/01 01:59:50;;;;;;;2.30;0.70;;;7.60;99.90;;;;;;5034302;28;20237;-63
2021/12/01 02:02:18;;;;;;;0.87;0.50;;;7.60;99.90;;;;;;5034068;28;20214;-63
2021/12/01 02:04:46;;;;;;;0.60;0.60;;;7.60;99.90;;;;;;5034522;28;20279;-63
2021/12/01 02:07:12;;;;;;;0.97;0.60;;;7.60;99.90;;;;;;5034173;28;20206;-63
2021/12/01 02:09:39;;;;;;;0.90;0.60;;;7.60;99.90;;;;;;5034399;28;20225;-63
2021/12/01 02:12:06;;;;;;;0.90;0.90;;;7.60;99.90;;;;;;5033852;28;20561;-63
2021/12/01 02:14:33;;;;;;;0.63;0.60;;;7.60;99.90;;;;;;5033855;28;20268;-62
2021/12/01 02:17:00;;;;;;;2.50;1.30;;;7.60;99.90;;;;;;5034129;28;20709;-64
2021/12/01 02:19:28;;;;;;;1.10;0.70;;;7.60;99.90;;;;;;5034102;28;20670;-63
2021/12/01 02:21:56;;;;;;;1.10;1.00;;;7.60;99.90;;;;;;5033867;28;20210;-62
2021/12/01 02:24:24;;;;;;;1.67;0.90;;;7.60;99.90;;;;;;5034059;28;20207;-63
2021/12/01 02:26:53;;;;;;;1.90;0.80;;;7.50;99.90;;;;;;5034248;28;20214;-63
2021/12/01 02:29:24;;;;;;;0.97;0.70;;;7.60;99.90;;;;;;5033616;28;20210;-63
2021/12/01 02:31:51;;;;;;;1.20;0.77;;;7.60;99.90;;;;;;5034116;28;20214;-63
2021/12/01 02:34:20;;;;;;;2.40;1.00;;;7.70;99.90;;;;;;5034688;28;20261;-63
2021/12/01 02:36:49;;;;;;;1.47;0.90;;;7.70;99.90;;;;;;5036629;28;20210;-62
2021/12/01 02:39:17;;;;;;;1.10;0.93;;;7.70;99.90;;;;;;5036860;28;20648;-62
2021/12/01 02:41:46;;;;;;;1.17;0.80;;;7.60;99.90;;;;;;5038130;28;20217;-63
2021/12/01 02:44:16;;;;;;;1.07;0.87;;;7.60;99.90;;;;;;5038712;28;20252;-64
2021/12/01 02:46:43;;;;;;;1.07;0.83;;;7.70;99.90;;;;;;5040475;28;20717;-63
2021/12/01 02:49:10;;;;;;;1.57;1.00;;;7.70;99.90;;;;;;5038203;28;20206;-63
2021/12/01 02:51:38;;;;;;;1.73;0.90;;;7.70;99.90;;;;;;5036942;28;20206;-62
2021/12/01 02:54:06;;;;;;;1.00;0.77;;;7.70;99.90;;;;;;5034448;28;20611;-62
2021/12/01 02:56:35;;;;;;;1.20;1.00;;;7.70;99.90;;;;;;5033318;28;20222;-62
2021/12/01 02:59:05;;;;;;;1.10;0.80;;;7.60;99.90;;;;;;5033286;28;20202;-62
2021/12/01 03:01:31;;;;;;;1.43;1.00;;;7.60;99.90;;;;;;5032859;28;20206;-63
2021/12/01 03:04:00;;;;;;;0.87;0.70;;;7.60;99.90;;;;;;5033462;28;20203;-62
2021/12/01 03:06:28;;;;;;;1.10;0.80;;;7.60;99.90;;;;;;5032509;28;20261;-62
2021/12/01 03:08:56;;;;;;;0.90;0.77;;;7.60;99.90;;;;;;5032975;28;20202;-62
2021/12/01 03:11:23;;;;;;;0.73;0.50;;;7.60;99.90;;;;;;5032736;28;20222;-62
2021/12/01 03:13:52;;;;;;;1.17;0.60;;;7.60;99.90;;;;;;5033031;28;20234;-62
2021/12/01 03:16:18;;;;;;;0.80;0.73;;;7.60;99.90;;;;;;5033148;28;20230;-62
2021/12/01 03:18:45;;;;;;;1.23;0.70;;;7.60;99.90;;;;;;5032748;28;20737;-62
2021/12/01 03:21:12;;;;;;;2.10;0.60;;;7.60;99.90;;;;;;5032437;28;20210;-62
2021/12/01 03:23:40;;;;;;;0.90;0.53;;;7.60;99.90;;;;;;5032405;28;20203;-62
2021/12/01 03:26:07;;;;;;;1.17;0.53;;;7.60;99.90;;;;;;5032795;28;20601;-62
2021/12/01 03:28:34;;;;;;;0.90;0.60;;;7.70;99.90;;;;;;5032869;28;20214;-63
2021/12/01 03:31:02;;;;;;;0.73;0.57;;;7.70;99.90;;;;;;5032287;28;20209;-63
2021/12/01 03:33:29;;;;;;;0.60;0.60;;;7.70;99.90;;;;;;5034141;28;20226;-63
2021/12/01 03:35:55;;;;;;;0.60;0.53;;;7.70;99.90;;;;;;5032589;28;20234;-63
2021/12/01 03:38:26;;;;;;;0.97;0.60;;;7.70;99.90;;;;;;5032891;28;20209;-62
2021/12/01 03:40:54;;;;;;;0.97;0.60;;;7.70;99.90;;;;;;5032370;28;20336;-62
2021/12/01 03:43:21;;;;;;;1.63;0.60;;;7.60;99.90;;;;;;5032317;28;20206;-62
2021/12/01 03:45:47;;;;;;;0.60;0.60;;;7.70;99.90;;;;;;5032874;28;20229;-62
2021/12/01 03:48:16;;;;;;;0.60;0.60;;;7.70;99.90;;;;;;5032993;28;20713;-62
2021/12/01 03:50:48;;;;;;;0.77;0.50;;;7.70;99.90;;;;;;5032628;28;20301;-63
2021/12/01 03:53:15;;;;;;;0.50;0.50;;;7.80;99.90;;;;;;5032676;28;20210;-62
2021/12/01 03:55:42;;;;;;;0.60;0.43;;;7.80;99.90;;;;;;5033621;28;20226;-63
2021/12/01 03:58:09;;;;;;;0.73;0.70;;;7.90;99.90;;;;;;5033606;28;20210;-63
2021/12/01 04:00:35;;;;;;;1.13;0.80;;;7.90;99.90;;;;;;5033018;28;20213;-62
2021/12/01 04:03:02;;;;;;;0.60;0.60;;;7.90;99.90;;;;;;5032784;28;20214;-62
2021/12/01 04:05:30;;;;;;;3.57;0.80;;;7.90;99.90;;;;;;5032423;28;20229;-63
2021/12/01 04:07:57;;;;;;;0.93;0.80;;;7.90;99.90;;;;;;5032622;28;20217;-62
2021/12/01 04:10:24;;;;;;;0.40;0.40;;;7.90;99.90;;;;;;5032202;28;20286;-63
2021/12/01 04:12:51;;;;;;;0.67;0.50;;;7.90;99.90;;;;;;5032361;28;20687;-63
2021/12/01 04:15:18;;;;;;;18.67;15.97;;;8.00;99.90;;;;;;5032116;28;20238;-63
2021/12/01 04:17:45;;;;;;;1.07;0.97;;;8.00;99.90;;;;;;5032477;28;20202;-63
2021/12/01 04:20:13;;;;;;;0.50;0.40;;;8.00;99.90;;;;;;5035378;28;20210;-63
2021/12/01 04:22:42;;;;;;;1.30;0.50;;;8.10;99.90;;;;;;5036104;28;20232;-64
2021/12/01 04:25:10;;;;;;;0.50;0.50;;;8.10;99.90;;;;;;5036592;28;20230;-63
2021/12/01 04:27:37;;;;;;;0.50;0.50;;;8.10;99.90;;;;;;5036110;28;20213;-63
2021/12/01 04:30:04;;;;;;;0.60;0.60;;;8.10;99.90;;;;;;5036463;28;20238;-63
2021/12/01 04:32:31;;;;;;;0.83;0.60;;;8.10;99.90;;;;;;5036417;28;20507;-63
2021/12/01 04:34:58;;;;;;;1.03;0.73;;;8.00;99.90;;;;;;5036459;28;20238;-63
2021/12/01 04:37:25;;;;;;;1.03;0.70;;;8.00;99.90;;;;;;5036322;28;20218;-63
2021/12/01 04:39:54;;;;;;;1.10;0.70;;;8.10;99.90;;;;;;5035967;28;20215;-63
2021/12/01 04:42:21;;;;;;;0.93;0.80;;;8.10;99.90;;;;;;5035623;28;20214;-63
2021/12/01 04:44:48;;;;;;;1.10;0.77;;;8.10;99.90;;;;;;5035858;28;20785;-63
2021/12/01 04:47:18;;;;;;;3.37;1.10;;;8.10;99.90;;;;;;5036016;28;20214;-62
2021/12/01 04:49:45;;;;;;;0.73;0.70;;;8.20;99.90;;;;;;5035892;28;20209;-63
2021/12/01 04:52:12;;;;;;;1.03;0.60;;;8.20;99.90;;;;;;5035491;28;20221;-62
2021/12/01 04:54:39;;;;;;;1.63;0.90;;;8.20;99.90;;;;;;5035888;28;20230;-63
2021/12/01 04:57:08;;;;;;;0.77;0.67;;;8.30;99.90;;;;;;5035959;28;20298;-63
2021/12/01 04:59:37;;;;;;;0.80;0.70;;;8.20;99.90;;;;;;5036148;28;20202;-63
2021/12/01 05:02:04;;;;;;;1.97;0.90;;;8.30;99.90;;;;;;5035848;28;20293;-62
2021/12/01 05:04:31;;;;;;;0.90;0.57;;;8.30;99.90;;;;;;5036257;28;20230;-62
2021/12/01 05:06:58;;;;;;;1.57;1.30;;;8.20;99.90;;;;;;5035511;28;20210;-63
2021/12/01 05:09:25;;;;;;;0.87;0.70;;;8.20;99.90;;;;;;5036570;28;20264;-63
2021/12/01 05:11:51;;;;;;;0.80;0.70;;;8.20;99.90;;;;;;5034911;28;20217;-63
2021/12/01 05:14:20;;;;;;;1.60;1.00;;;8.20;99.90;;;;;;5034787;28;20225;-62
2021/12/01 05:16:47;;;;;;;1.10;0.80;;;8.40;99.90;;;;;;5035830;28;20209;-66
2021/12/01 05:19:14;;;;;;;0.60;0.50;;;8.30;99.90;;;;;;5038522;28;20213;-65
2021/12/01 05:21:41;;;;;;;3.50;0.77;;;8.30;99.90;;;;;;5037383;28;20213;-64
2021/12/01 05:24:08;;;;;;;1.30;0.90;;;8.30;99.90;;;;;;5035972;28;20206;-64
2021/12/01 05:26:35;;;;;;;1.10;0.60;;;8.30;99.90;;;;;;5036580;28;20202;-65
2021/12/01 05:29:03;;;;;;;1.90;0.70;;;8.30;99.90;;;;;;5036388;28;20206;-65
2021/12/01 05:31:31;;;;;;;0.93;0.70;;;8.40;99.90;;;;;;5035252;28;20233;-65
2021/12/01 05:33:58;;;;;;;0.90;0.80;;;8.40;99.90;;;;;;5035161;28;20218;-65
2021/12/01 05:36:25;;;;;;;0.70;0.60;;;8.40;99.90;;;;;;5034661;28;20601;-65
2021/12/01 05:38:51;;;;;;;1.43;0.87;;;8.50;99.90;;;;;;5034934;28;20225;-65
2021/12/01 05:41:18;;;;;;;1.07;0.70;;;8.50;99.90;;;;;;5035636;28;20209;-66
2021/12/01 05:43:45;;;;;;;2.30;1.30;;;8.50;99.90;;;;;;5035445;28;20264;-64
2021/12/01 05:46:12;;;;;;;3.00;1.20;;;8.50;99.90;;;;;;5035153;28;20230;-64
2021/12/01 05:48:40;;;;;;;1.80;1.03;;;8.50;99.90;;;;;;5034423;28;20214;-69
2021/12/01 05:51:07;;;;;;;1.03;0.70;;;8.50;99.90;;;;;;5034093;28;20269;-64
2021/12/01 05:53:34;;;;;;;2.70;1.07;;;8.60;99.90;;;;;;5034250;28;20240;-64
2021/12/01 05:56:01;;;;;;;1.20;0.70;;;8.50;99.90;;;;;;5034695;28;20234;-65
2021/12/01 05:58:28;;;;;;;1.23;0.90;;;8.60;99.90;;;;;;5034236;28;20206;-65
2021/12/01 06:00:55;;;;;;;3.67;2.30;;;8.60;99.90;;;;;;5034047;28;20209;-65
2021/12/01 06:03:24;;;;;;;1.10;0.70;;;8.70;99.90;;;;;;5034401;28;20214;-65
2021/12/01 06:05:52;;;;;;;1.60;1.07;;;8.70;99.90;;;;;;5033939;28;20226;-65
2021/12/01 06:08:18;;;;;;;1.13;0.70;;;8.70;99.90;;;;;;5034146;28;20213;-72
2021/12/01 06:10:46;;;;;;;0.90;0.60;;;8.80;99.90;;;;;;5033853;28;20209;-65
2021/12/01 06:13:16;;;;;;;1.30;0.67;;;8.90;99.90;;;;;;5033891;28;20217;-65
2021/12/01 06:15:43;;;;;;;1.13;0.80;;;9.00;99.90;;;;;;5034118;28;20229;-65
2021/12/01 06:18:10;;;;;;;0.53;0.50;;;9.10;99.90;;;;;;5033930;28;20242;-65
2021/12/01 06:20:37;;;;;;;1.67;0.70;;;9.20;99.90;;;;;;5033765;28;20665;-66
2021/12/01 06:23:06;;;;;;;0.77;0.50;;;9.30;99.90;;;;;;5034856;28;20214;-64
2021/12/01 06:25:33;;;;;;;0.83;0.50;;;9.30;99.90;;;;;;5034852;28;20219;-64
2021/12/01 06:27:59;;;;;;;2.10;1.07;;;9.10;99.90;;;;;;5034642;28;20206;-65
2021/12/01 06:30:27;;;;;;;2.20;0.70;;;9.30;99.90;;;;;;5034066;28;20609;-66
2021/12/01 06:32:54;;;;;;;1.30;0.60;;;9.40;99.90;;;;;;5034299;28;20222;-65
2021/12/01 06:35:21;;;;;;;1.60;0.40;;;9.40;99.90;;;;;;5033569;28;20319;-65
2021/12/01 06:37:52;;;;;;;0.80;0.60;;;9.40;99.90;;;;;;5033960;28;20618;-65
2021/12/01 06:40:20;;;;;;;1.10;0.67;;;9.40;99.90;;;;;;5033052;28;20588;-66
2021/12/01 06:42:47;;;;;;;1.40;0.53;;;9.40;99.90;;;;;;5032753;28;20202;-65
2021/12/01 06:45:16;;;;;;;0.63;0.50;;;9.50;99.90;;;;;;5033282;28;20226;-66
2021/12/01 06:47:43;;;;;;;1.53;0.80;;;9.50;99.90;;;;;;5033306;28;20246;-65
2021/12/01 06:50:11;;;;;;;0.53;0.43;;;9.50;99.90;;;;;;5033636;28;20288;-66
2021/12/01 06:52:39;;;;;;;0.60;0.50;;;9.60;99.90;;;;;;5033089;28;20628;-68
2021/12/01 06:55:07;;;;;;;0.57;0.50;;;9.60;99.90;;;;;;5033105;28;20234;-65
2021/12/01 06:57:36;;;;;;;0.57;0.50;;;9.40;99.90;;;;;;5033067;28;20210;-65
2021/12/01 07:00:07;;;;;;;2.00;0.70;;;9.30;99.90;;;;;;5033123;28;20600;-65
2021/12/01 07:02:34;;;;;;;0.50;0.50;;;9.20;99.90;;;;;;5032967;28;20592;-65
2021/12/01 07:05:01;;;;;;;0.97;0.70;;;9.20;99.90;;;;;;5033019;28;20228;-65
2021/12/01 07:07:28;;;;;;;1.83;1.47;;;9.20;99.90;;;;;;5033589;28;20210;-66
2021/12/01 07:09:55;;;;;;;1.40;0.80;;;9.20;99.90;;;;;;5033141;28;20212;-66
2021/12/01 07:12:25;;;;;;;0.80;0.70;;;9.20;99.90;;;;;;5032470;28;20246;-65
2021/12/01 07:14:53;;;;;;;1.80;0.50;;;9.30;99.90;;;;;;5033410;28;20288;-66
2021/12/01 07:17:20;;;;;;;2.23;0.70;;;9.40;99.90;;;;;;5033668;28;20214;-65
2021/12/01 07:19:48;;;;;;;1.40;0.50;;;9.40;99.90;;;;;;5032826;28;20209;-65
2021/12/01 07:22:15;;;;;;;2.33;1.47;;;9.50;99.90;;;;;;5032459;28;20301;-65
2021/12/01 07:24:42;;;;;;;1.50;0.73;;;9.50;99.90;;;;;;5032452;28;20222;-65
2021/12/01 07:27:09;;;;;;;1.30;0.80;;;9.60;99.90;;;;;;5032502;28;20233;-66
2021/12/01 07:29:36;;;;;;;1.63;0.70;;;9.70;99.90;;;;;;5032711;28;20206;-66
2021/12/01 07:32:05;;;;;;;1.47;0.60;;;9.70;99.90;;;;;;5032787;28;20218;-65
2021/12/01 07:34:33;;;;;;;2.37;1.23;;;9.80;99.90;;;;;;5032535;28;20295;-65
2021/12/01 07:37:00;;;;;;;1.10;0.70;;;9.80;99.90;;;;;;5032755;28;20216;-65
2021/12/01 07:39:26;;;;;;;2.13;0.97;;;9.80;99.90;;;;;;5032407;28;20594;-65
2021/12/01 07:41:53;;;;;;;1.97;0.70;;;9.90;99.90;;;;;;5032019;28;20213;-65
2021/12/01 07:44:20;;;;;;;0.70;0.53;;;9.90;99.90;;;;;;5032315;28;20666;-66
2021/12/01 07:46:48;;;;;;;1.47;0.60;;;9.90;99.90;;;;;;5032641;28;20214;-65
2021/12/01 07:49:19;;;;;;;0.50;0.40;;;9.90;99.90;;;;;;5032449;28;20207;-66
2021/12/01 07:51:45;;;;;;;2.00;0.73;;;10.00;99.90;;;;;;5032139;28;20210;-65
2021/12/01 07:54:12;;;;;;;1.13;0.50;;;10.10;99.90;;;;;;5033712;28;20439;-65
2021/12/01 07:56:39;;;;;;;3.13;0.60;;;10.20;99.90;;;;;;5036188;28;20225;-64
2021/12/01 07:59:06;;;;;;;0.80;0.50;;;10.30;99.90;;;;;;5036334;28;20216;-64
2021/12/01 08:01:32;;;;;;;0.70;0.50;;;10.30;99.90;;;;;;5036067;28;20212;-64
2021/12/01 08:03:59;;;;;;;1.60;0.50;;;10.30;99.90;;;;;;5036558;28;20697;-65
2021/12/01 08:06:30;;;;;;;0.40;0.40;;;10.40;99.90;;;;;;5036104;28;20222;-66
2021/12/01 08:08:59;;;;;;;0.77;0.43;;;10.40;99.90;;;;;;5035928;28;20963;-62
2021/12/01 08:11:26;;;;;;;0.60;0.40;;;10.40;99.90;;;;;;5035872;28;20210;-63
2021/12/01 08:13:53;;;;;;;1.77;0.80;;;10.40;99.90;;;;;;5035936;28;20210;-63
2021/12/01 08:16:20;;;;;;;1.40;0.60;;;10.40;99.90;;;;;;5035474;28;20233;-62
2021/12/01 08:18:51;;;;;;;0.77;0.20;;;10.40;99.90;;;;;;5035676;28;20213;-62
2021/12/01 08:21:17;;;;;;;0.60;0.40;;;10.30;99.90;;;;;;5035329;28;20210;-64
2021/12/01 08:23:45;;;;;;;1.00;0.50;;;10.30;99.90;;;;;;5035904;28;20221;-62
2021/12/01 08:26:12;;;;;;;1.43;0.20;;;10.30;99.90;;;;;;5035679;28;20694;-62
2021/12/01 08:28:41;;;;;;;2.10;1.20;;;10.40;99.90;;;;;;5035686;28;20609;-63
2021/12/01 08:31:08;;;;;;;2.20;1.10;;;10.30;99.90;;;;;;5035183;28;20248;-61
2021/12/01 08:33:35;;;;;;;0.20;0.20;;;10.40;99.90;;;;;;5035527;28;20728;-63
2021/12/01 08:36:01;;;;;;;1.10;0.33;;;10.40;99.90;;;;;;5035279;28;20230;-64
2021/12/01 08:38:28;;;;;;;0.60;0.37;;;10.30;99.90;;;;;;5035782;28;20628;-63
2021/12/01 08:40:56;;;;;;;0.93;0.40;;;10.40;99.90;;;;;;5035325;28;20207;-62
2021/12/01 08:43:23;;;;;;;0.60;0.40;;;10.40;99.90;;;;;;5035315;28;20210;-63
2021/12/01 08:45:49;;;;;;;0.33;0.20;;;10.40;99.90;;;;;;5035191;28;20222;-63
2021/12/01 08:48:16;;;;;;;1.90;0.50;;;10.50;99.90;;;;;;5035410;28;20260;-66
2021/12/01 08:50:43;;;;;;;4.10;3.53;;;10.50;99.90;;;;;;5035872;28;20202;-63
2021/12/01 08:53:10;;;;;;;0.73;0.50;;;10.60;99.90;;;;;;5035428;28;20211;-61
2021/12/01 08:55:40;;;;;;;2.00;0.40;;;10.60;99.90;;;;;;5035113;28;20252;-63
2021/12/01 08:58:09;;;;;;;0.57;0.53;;;10.70;99.90;;;;;;5035253;28;20301;-63
2021/12/01 09:00:37;;;;;;;0.50;0.50;;;10.80;99.90;;;;;;5035210;28;20244;-63
2021/12/01 09:03:05;;;;;;;1.50;0.40;;;10.90;99.90;;;;;;5034726;28;20237;-64
2021/12/01 09:05:31;;;;;;;0.53;0.30;;;11.10;99.90;;;;;;5034557;28;20249;-63
2021/12/01 09:07:58;;;;;;;0.67;0.33;;;11.30;99.90;;;;;;5035312;28;20217;-62
2021/12/01 09:10:25;;;;;;;0.50;0.30;;;11.50;99.90;;;;;;5034853;28;20666;-63
2021/12/01 09:12:52;;;;;;;1.37;0.90;;;11.60;99.90;;;;;;5034526;28;20217;-63
2021/12/01 09:15:20;;;;;;;1.50;0.57;;;11.80;99.90;;;;;;5034451;28;20242;-62
2021/12/01 09:17:46;;;;;;;0.60;0.50;;;12.10;99.90;;;;;;5034628;28;20699;-62
2021/12/01 09:20:14;;;;;;;0.47;0.30;;;12.20;99.90;;;;;;5034871;28;20574;-64
2021/12/01 09:22:41;;;;;;;0.27;0.17;;;12.20;99.90;;;;;;5034593;28;20206;-63
2021/12/01 09:25:09;;;;;;;0.40;0.30;;;12.30;99.90;;;;;;5034730;28;20219;-65
2021/12/01 09:27:36;;;;;;;3.13;0.50;;;12.40;99.90;;;;;;5034375;28;20206;-63
2021/12/01 09:30:04;;;;;;;0.67;0.40;;;12.50;99.90;;;;;;5034647;28;20210;-63
2021/12/01 09:32:34;;;;;;;1.77;0.53;;;12.70;99.90;;;;;;5034502;28;20210;-63
2021/12/01 09:35:01;;;;;;;0.87;0.57;;;12.80;99.90;;;;;;5034254;28;20248;-63
2021/12/01 09:37:28;;;;;;;0.83;0.40;;;12.80;99.90;;;;;;5034590;28;20213;-64
2021/12/01 09:39:55;;;;;;;0.23;0.20;;;12.80;99.90;;;;;;5034590;28;20822;-63
2021/12/01 09:42:22;;;;;;;0.60;0.30;;;12.70;99.90;;;;;;5034052;28;20206;-63
2021/12/01 09:44:51;;;;;;;0.53;0.40;;;12.60;99.90;;;;;;5034245;28;20237;-62
2021/12/01 09:47:20;;;;;;;1.73;0.37;;;12.50;99.90;;;;;;5034627;28;20249;-64
2021/12/01 09:49:50;;;;;;;0.30;0.30;;;12.50;99.90;;;;;;5034199;28;20663;-63
2021/12/01 09:52:18;;;;;;;0.77;0.50;;;12.50;99.90;;;;;;5034237;28;20229;-63
2021/12/01 09:54:45;;;;;;;0.10;0.10;;;12.40;99.90;;;;;;5033999;28;20744;-63
2021/12/01 09:57:14;;;;;;;0.50;0.37;;;12.40;99.90;;;;;;5034040;28;20226;-62
2021/12/01 09:59:41;;;;;;;1.67;0.20;;;12.30;99.90;;;;;;5034525;28;20229;-64
2021/12/01 10:02:08;;;;;;;2.27;2.03;;;12.20;99.90;;;;;;5034283;28;20214;-64
2021/12/01 10:04:35;;;;;;;0.10;0.10;;;12.00;99.90;;;;;;5034003;28;20237;-64
2021/12/01 10:07:15;;;;;;;1.20;0.20;;;11.90;99.90;;;;;;5034201;28;20260;-64
2021/12/01 10:09:44;;;;;;;0.40;0.13;;;11.90;99.90;;;;;;5033794;28;20238;-63
2021/12/01 10:12:11;;;;;;;0.27;0.17;;;11.80;99.90;;;;;;5033544;28;20237;-63
2021/12/01 10:14:39;;;;;;;2.80;0.40;;;11.80;99.90;;;;;;5033606;28;20299;-63
2021/12/01 10:17:06;;;;;;;1.40;0.30;;;11.80;99.90;;;;;;5032862;28;20260;-63
2021/12/01 10:19:33;;;;;;;0.77;0.30;;;11.80;99.90;;;;;;5033871;28;20237;-63
2021/12/01 10:22:00;;;;;;;3.20;0.40;;;11.80;99.90;;;;;;5033339;28;20209;-63
2021/12/01 10:24:31;;;;;;;0.73;0.27;;;11.80;99.90;;;;;;5033650;28;20276;-64
2021/12/01 10:26:59;;;;;;;13.97;11.83;;;11.80;99.90;;;;;;5034149;28;20628;-63
2021/12/01 10:29:30;;;;;;;0.20;0.20;;;11.80;99.90;;;;;;5033782;28;20206;-61
2021/12/01 10:31:58;;;;;;;1.97;0.40;;;12.00;99.90;;;;;;5033396;28;20210;-62
2021/12/01 10:34:29;;;;;;;3.67;0.40;;;12.10;99.90;;;;;;5033245;28;20207;-63
2021/12/01 10:37:15;;;;;;;2.73;0.30;;;12.10;99.90;;;;;;5032982;28;20222;-63
2021/12/01 10:39:45;;;;;;;0.10;0.10;;;12.20;99.90;;;;;;5033490;28;20210;-63
2021/12/01 10:42:14;;;;;;;0.20;0.20;;;12.20;99.90;;;;;;5032876;28;20583;-64
2021/12/01 10:44:56;;;;;;;0.30;0.20;;;12.30;99.90;;;;;;5033120;28;20321;-63
2021/12/01 10:47:23;;;;;;;0.67;0.40;;;12.30;99.90;;;;;;5032899;28;20206;-64
2021/12/01 10:49:49;;;;;;;1.70;0.50;;;12.40;99.90;;;;;;5033022;28;20202;-63
2021/12/01 10:52:32;;;;;;;0.60;0.30;;;12.60;99.90;;;;;;5032934;28;20206;-65
2021/12/01 10:55:14;;;;;;;0.20;0.20;;;12.70;99.90;;;;;;5032772;28;20265;-64
2021/12/01 10:57:42;;;;;;;1.23;0.30;;;12.70;99.90;;;;;;5032557;28;20222;-64
2021/12/01 11:00:14;;;;;;;2.20;0.47;;;12.80;99.90;;;;;;5032785;28;20576;-61
2021/12/01 11:02:42;;;;;;;0.13;0.13;;;12.70;99.90;;;;;;5032633;28;20238;-62
2021/12/01 11:05:09;;;;;;;0.97;0.50;;;12.60;99.90;;;;;;5033797;28;20226;-62
2021/12/01 11:07:36;;;;;;;0.60;0.30;;;12.70;99.90;;;;;;5037274;28;20212;-62
2021/12/01 11:10:13;;;;;;;0.40;0.40;;;12.80;99.90;;;;;;5034057;28;20210;-63
2021/12/01 11:12:41;;;;;;;2.03;0.90;;;12.90;99.90;;;;;;5034490;28;20209;-62
2021/12/01 11:15:23;;;;;;;5.67;0.83;;;12.80;99.90;;;;;;5061719;22;20237;-56
2021/12/01 11:17:51;;;;;;;1.10;0.40;;;12.70;99.90;;;;;;5051838;28;20665;-58
2021/12/01 11:20:34;;;;;;;0.90;0.27;;;12.60;99.90;;;;;;5051938;28;20255;-58
2021/12/01 11:23:22;;;;;;;0.40;0.33;;;12.70;99.90;;;;;;5050147;28;20213;-56
2021/12/01 11:25:53;;;;;;;4.03;2.27;;;12.70;99.90;;;;;;5052094;28;20228;-56
2021/12/01 11:28:26;;;;;;;4.63;1.40;;;12.80;99.90;;;;;;5052132;28;20210;-56
2021/12/01 11:30:56;;;;;;;3.07;0.73;;;12.90;99.90;;;;;;5051915;28;20677;-57
2021/12/01 11:33:24;;;;;;;1.40;0.60;;;12.90;99.90;;;;;;5051559;28;20297;-56
2021/12/01 11:35:54;;;;;;;1.03;0.50;;;12.90;99.90;;;;;;5051942;28;20222;-57
2021/12/01 11:38:22;;;;;;;2.90;1.20;;;12.70;99.90;;;;;;5052134;28;20214;-57
2021/12/01 11:40:55;;;;;;;1.00;0.50;;;12.50;99.90;;;;;;5052130;28;20217;-57
2021/12/01 11:43:25;;;;;;;0.30;0.20;;;12.40;99.90;;;;;;5051831;28;20282;-58
2021/12/01 11:45:52;;;;;;;1.97;0.40;;;12.30;99.90;;;;;;5051871;28;20279;-57
2021/12/01 11:48:25;;;;;;;1.30;0.63;;;12.30;99.90;;;;;;5051795;28;20214;-57
2021/12/01 11:51:00;;;;;;;0.43;0.30;;;12.40;99.90;;;;;;5051976;28;20209;-59
2021/12/01 11:53:33;;;;;;;0.30;0.20;;;12.40;99.90;;;;;;5051807;28;20205;-57
2021/12/01 11:56:04;;;;;;;0.30;0.30;;;12.50;99.90;;;;;;5051469;28;20221;-57
2021/12/01 11:58:45;;;;;;;0.13;0.10;;;12.60;99.90;;;;;;5051789;28;20271;-58
2021/12/01 12:01:39;;;;;;;0.40;0.27;;;12.70;99.90;;;;;;5051827;28;20206;-56
2021/12/01 12:04:23;;;;;;;0.27;0.27;;;12.70;99.90;;;;;;5051877;28;20735;-56
2021/12/01 12:06:53;;;;;;;2.20;0.77;;;12.70;99.90;;;;;;5051971;28;20225;-56
2021/12/01 12:09:22;;;;;;;1.37;0.40;;;12.70;99.90;;;;;;5052137;28;20202;-57
2021/12/01 12:11:52;;;;;;;1.50;0.40;;;12.80;99.90;;;;;;5052036;28;20213;-57
2021/12/01 12:14:21;;;;;;;0.20;0.20;;;12.80;99.90;;;;;;5051973;28;20308;-58
2021/12/01 12:17:09;;;;;;;1.83;0.50;;;12.70;99.90;;;;;;5051383;28;20233;-56
2021/12/01 12:19:49;;;;;;;2.57;1.13;;;12.70;99.90;;;;;;5051895;28;20206;-56
2021/12/01 12:22:19;;;;;;;0.63;0.50;;;12.80;99.90;;;;;;5051358;28;20205;-56
2021/12/01 12:24:51;;;;;;;0.30;0.20;;;12.70;99.90;;;;;;5051512;28;20213;-57
2021/12/01 12:27:38;;;;;;;0.40;0.40;;;12.70;99.90;;;;;;5051459;28;20205;-58
2021/12/01 12:30:09;;;;;;;0.50;0.40;;;12.60;99.90;;;;;;5051801;28;20263;-59
2021/12/01 12:32:36;;;;;;;1.60;1.13;;;12.60;99.90;;;;;;5051197;28;20692;-57
2021/12/01 12:35:15;;;;;;;1.67;1.00;;;12.60;99.90;;;;;;5051182;28;20252;-60
2021/12/01 12:37:43;;;;;;;0.10;0.10;;;12.60;99.90;;;;;;5051059;28;20232;-58
2021/12/01 12:40:30;;;;;;;1.53;0.30;;;12.60;99.90;;;;;;5053045;28;20206;-61
2021/12/01 12:43:08;;;;;;;0.43;0.40;;;12.50;99.90;;;;;;5055058;28;20233;-60
2021/12/01 12:45:37;;;;;;;0.63;0.20;;;12.60;99.90;;;;;;5054817;28;20225;-57
2021/12/01 12:48:25;;;;;;;0.30;0.20;;;12.50;99.90;;;;;;5054806;28;20259;-59
2021/12/01 12:51:19;;;;;;;0.30;0.30;;;12.50;99.90;;;;;;5054988;28;20209;-58
2021/12/01 12:54:15;;;;;;;0.60;0.30;;;12.50;99.90;;;;;;5054766;28;20590;-58
2021/12/01 12:56:51;;;;;;;2.10;1.30;;;12.50;99.90;;;;;;5054608;28;20246;-60
2021/12/01 12:59:29;;;;;;;0.40;0.40;;;12.60;99.90;;;;;;5054818;28;20209;-60
2021/12/01 13:02:17;;;;;;;1.87;1.00;;;12.70;99.90;;;;;;5054429;28;20232;-58
2021/12/01 13:05:01;;;;;;;0.93;0.80;;;12.90;99.90;;;;;;5054388;28;20205;-62
2021/12/01 13:07:46;;;;;;;1.33;0.53;;;13.00;99.90;;;;;;5050863;28;20205;-57